sensor_id;sensor_type;location;lat;lon;timestamp;pressure;altitude;pressure_sealevel;temperature;humidity
62103;BME280;48077;48.104;11.702;2023-02-19T00:01:35;95936.13;;;9.60;70.80
62103;BME280;48077;48.104;11.702;2023-02-19T00:04:03;95903.47;;;9.39;71.29
62103;BME280;48077;48.104;11.702;2023-02-19T00:06:29;95905.94;;;9.41;71.38
62103;BME280;48077;48.104;11.702;2023-02-19T00:08:53;95904.06;;;9.48;71.12
62103;BME280;48077;48.104;11.702;2023-02-19T00:11:19;95915.25;;;9.57;71.35
62103;BME280;48077;48.104;11.702;2023-02-19T00:13:44;95910.84;;;9.44;72.04
62103;BME280;48077;48.104;11.702;2023-02-19T00:16:11;95892.88;;;9.32;71.64
62103;BME280;48077;48.104;11.702;2023-02-19T00:18:34;95900.75;;;9.52;71.39
62103;BME280;48077;48.104;11.702;2023-02-19T00:20:58;95908.09;;;9.57;70.79
62103;BME280;48077;48.104;11.702;2023-02-19T00:23:22;95882.44;;;9.38;71.38
62103;BME280;48077;48.104;11.702;2023-02-19T00:25:45;95912.88;;;9.48;71.69
62103;BME280;48077;48.104;11.702;2023-02-19T00:28:08;95914.66;;;9.55;71.53
62103;BME280;48077;48.104;11.702;2023-02-19T00:30:32;95902.88;;;9.44;72.05
62103;BME280;48077;48.104;11.702;2023-02-19T00:32:55;95893.44;;;9.41;72.40
62103;BME280;48077;48.104;11.702;2023-02-19T00:35:18;95909.16;;;9.49;72.19
62103;BME280;48077;48.104;11.702;2023-02-19T00:37:42;95896.16;;;9.35;72.42
62103;BME280;48077;48.104;11.702;2023-02-19T00:40:05;95901.00;;;9.44;71.88
62103;BME280;48077;48.104;11.702;2023-02-19T00:42:29;95908.34;;;9.49;72.29
62103;BME280;48077;48.104;11.702;2023-02-19T00:44:52;95905.69;;;9.49;71.88
62103;BME280;48077;48.104;11.702;2023-02-19T00:47:16;95897.78;;;9.36;72.49
62103;BME280;48077;48.104;11.702;2023-02-19T00:49:39;95908.41;;;9.42;72.65
62103;BME280;48077;48.104;11.702;2023-02-19T00:52:03;95877.34;;;9.29;72.22
62103;BME280;48077;48.104;11.702;2023-02-19T00:54:26;95887.16;;;9.29;72.53
62103;BME280;48077;48.104;11.702;2023-02-19T00:56:50;95830.69;;;8.95;72.81
62103;BME280;48077;48.104;11.702;2023-02-19T00:59:14;95867.56;;;9.23;72.84
62103;BME280;48077;48.104;11.702;2023-02-19T01:01:37;95861.69;;;9.15;73.16
62103;BME280;48077;48.104;11.702;2023-02-19T01:04:01;95856.75;;;9.18;73.32
62103;BME280;48077;48.104;11.702;2023-02-19T01:06:24;95876.75;;;9.27;73.26
62103;BME280;48077;48.104;11.702;2023-02-19T01:08:48;95872.63;;;9.31;72.85
62103;BME280;48077;48.104;11.702;2023-02-19T01:11:12;95878.31;;;9.35;72.77
62103;BME280;48077;48.104;11.702;2023-02-19T01:13:35;95871.44;;;9.27;73.26
62103;BME280;48077;48.104;11.702;2023-02-19T01:16:06;95865.88;;;9.29;72.85
62103;BME280;48077;48.104;11.702;2023-02-19T01:18:30;95871.19;;;9.29;73.18
62103;BME280;48077;48.104;11.702;2023-02-19T01:20:54;95851.22;;;9.20;73.36
62103;BME280;48077;48.104;11.702;2023-02-19T01:23:17;95852.63;;;9.22;73.10
62103;BME280;48077;48.104;11.702;2023-02-19T01:25:41;95871.63;;;9.26;73.74
62103;BME280;48077;48.104;11.702;2023-02-19T01:28:05;95852.25;;;9.19;73.20
62103;BME280;48077;48.104;11.702;2023-02-19T01:30:28;95866.72;;;9.23;73.87
62103;BME280;48077;48.104;11.702;2023-02-19T01:32:51;95817.78;;;8.99;73.73
62103;BME280;48077;48.104;11.702;2023-02-19T01:35:15;95832.22;;;9.09;73.77
62103;BME280;48077;48.104;11.702;2023-02-19T01:37:38;95849.34;;;9.20;73.64
62103;BME280;48077;48.104;11.702;2023-02-19T01:40:02;95841.75;;;9.24;73.96
62103;BME280;48077;48.104;11.702;2023-02-19T01:42:25;95837.75;;;9.08;73.76
62103;BME280;48077;48.104;11.702;2023-02-19T01:50:27;95844.72;;;9.09;74.40
62103;BME280;48077;48.104;11.702;2023-02-19T01:52:51;95842.06;;;9.09;73.98
62103;BME280;48077;48.104;11.702;2023-02-19T01:55:15;95828.22;;;9.00;74.21
62103;BME280;48077;48.104;11.702;2023-02-19T01:57:42;95845.50;;;9.16;74.71
62103;BME280;48077;48.104;11.702;2023-02-19T02:00:10;95826.16;;;9.02;74.04
62103;BME280;48077;48.104;11.702;2023-02-19T02:02:34;95834.63;;;9.18;74.04
62103;BME280;48077;48.104;11.702;2023-02-19T02:04:58;95821.84;;;9.01;74.44
62103;BME280;48077;48.104;11.702;2023-02-19T02:07:22;95827.13;;;9.08;75.08
62103;BME280;48077;48.104;11.702;2023-02-19T02:10:05;95834.50;;;9.06;75.00
62103;BME280;48077;48.104;11.702;2023-02-19T02:12:43;95825.31;;;9.02;75.02
62103;BME280;48077;48.104;11.702;2023-02-19T02:15:07;95811.47;;;8.93;75.61
62103;BME280;48077;48.104;11.702;2023-02-19T02:17:53;95827.16;;;9.01;76.03
62103;BME280;48077;48.104;11.702;2023-02-19T02:23:23;95837.59;;;9.03;77.03
62103;BME280;48077;48.104;11.702;2023-02-19T02:30:55;95801.56;;;8.68;80.43
62103;BME280;48077;48.104;11.702;2023-02-19T02:33:34;95824.25;;;8.78;81.42
62103;BME280;48077;48.104;11.702;2023-02-19T02:36:05;95823.88;;;8.67;82.92
62103;BME280;48077;48.104;11.702;2023-02-19T02:38:32;95815.94;;;8.61;83.92
62103;BME280;48077;48.104;11.702;2023-02-19T02:40:56;95814.91;;;8.62;84.10
62103;BME280;48077;48.104;11.702;2023-02-19T02:43:20;95822.91;;;8.55;85.47
62103;BME280;48077;48.104;11.702;2023-02-19T02:45:43;95818.88;;;8.46;85.76
62103;BME280;48077;48.104;11.702;2023-02-19T02:53:29;95793.97;;;8.27;88.37
62103;BME280;48077;48.104;11.702;2023-02-19T02:56:14;95790.13;;;8.16;89.28
62103;BME280;48077;48.104;11.702;2023-02-19T02:58:39;95773.19;;;8.04;91.90
62103;BME280;48077;48.104;11.702;2023-02-19T03:01:06;95776.50;;;7.99;92.71
62103;BME280;48077;48.104;11.702;2023-02-19T03:04:00;95774.06;;;7.91;93.22
62103;BME280;48077;48.104;11.702;2023-02-19T03:06:28;95745.91;;;7.77;93.53
62103;BME280;48077;48.104;11.702;2023-02-19T03:09:10;95781.66;;;7.87;94.35
62103;BME280;48077;48.104;11.702;2023-02-19T03:11:38;95749.25;;;7.59;96.00
62103;BME280;48077;48.104;11.702;2023-02-19T03:14:30;95730.69;;;7.39;97.29
62103;BME280;48077;48.104;11.702;2023-02-19T03:17:26;95775.97;;;7.77;97.90
62103;BME280;48077;48.104;11.702;2023-02-19T03:20:13;95771.91;;;7.61;99.21
62103;BME280;48077;48.104;11.702;2023-02-19T03:22:39;95769.03;;;7.49;100.00
62103;BME280;48077;48.104;11.702;2023-02-19T03:27:50;95794.16;;;7.47;100.00
62103;BME280;48077;48.104;11.702;2023-02-19T03:30:18;95787.63;;;7.49;100.00
62103;BME280;48077;48.104;11.702;2023-02-19T03:32:52;95756.63;;;7.30;100.00
62103;BME280;48077;48.104;11.702;2023-02-19T03:35:20;95773.16;;;7.32;100.00
62103;BME280;48077;48.104;11.702;2023-02-19T03:37:51;95782.34;;;7.29;100.00
62103;BME280;48077;48.104;11.702;2023-02-19T03:40:17;95762.34;;;7.07;100.00
62103;BME280;48077;48.104;11.702;2023-02-19T03:45:37;95790.09;;;7.11;100.00
62103;BME280;48077;48.104;11.702;2023-02-19T03:48:26;95796.22;;;7.12;100.00
62103;BME280;48077;48.104;11.702;2023-02-19T03:51:06;95802.75;;;7.16;100.00
62103;BME280;48077;48.104;11.702;2023-02-19T03:53:43;95773.16;;;6.92;100.00
62103;BME280;48077;48.104;11.702;2023-02-19T03:56:13;95790.69;;;7.00;100.00
62103;BME280;48077;48.104;11.702;2023-02-19T03:59:04;95786.00;;;6.88;100.00
62103;BME280;48077;48.104;11.702;2023-02-19T04:01:51;95785.81;;;6.90;100.00
62103;BME280;48077;48.104;11.702;2023-02-19T04:04:28;95774.78;;;6.80;100.00
62103;BME280;48077;48.104;11.702;2023-02-19T04:06:57;95765.19;;;6.85;100.00
62103;BME280;48077;48.104;11.702;2023-02-19T04:09:23;95793.34;;;6.86;100.00
62103;BME280;48077;48.104;11.702;2023-02-19T04:11:50;95765.16;;;6.72;100.00
62103;BME280;48077;48.104;11.702;2023-02-19T04:14:22;95782.91;;;6.78;100.00
62103;BME280;48077;48.104;11.702;2023-02-19T04:16:54;95770.88;;;6.76;100.00
62103;BME280;48077;48.104;11.702;2023-02-19T04:19:22;95763.75;;;6.76;100.00
62103;BME280;48077;48.104;11.702;2023-02-19T04:21:48;95771.50;;;6.71;100.00
62103;BME280;48077;48.104;11.702;2023-02-19T04:24:18;95774.16;;;6.78;100.00
62103;BME280;48077;48.104;11.702;2023-02-19T04:26:44;95749.25;;;6.59;100.00
62103;BME280;48077;48.104;11.702;2023-02-19T04:29:07;95728.25;;;6.51;100.00
62103;BME280;48077;48.104;11.702;2023-02-19T04:31:31;95758.63;;;6.68;100.00
62103;BME280;48077;48.104;11.702;2023-02-19T04:33:57;95744.34;;;6.56;100.00
62103;BME280;48077;48.104;11.702;2023-02-19T04:36:20;95759.66;;;6.67;100.00
62103;BME280;48077;48.104;11.702;2023-02-19T04:38:44;95755.97;;;6.68;100.00
62103;BME280;48077;48.104;11.702;2023-02-19T04:41:10;95767.19;;;6.63;100.00
62103;BME280;48077;48.104;11.702;2023-02-19T04:43:33;95765.78;;;6.67;100.00
62103;BME280;48077;48.104;11.702;2023-02-19T04:46:00;95769.44;;;6.66;100.00
62103;BME280;48077;48.104;11.702;2023-02-19T04:48:26;95780.47;;;6.70;100.00
62103;BME280;48077;48.104;11.702;2023-02-19T04:50:50;95781.66;;;6.54;100.00
62103;BME280;48077;48.104;11.702;2023-02-19T04:53:13;95783.91;;;6.57;100.00
62103;BME280;48077;48.104;11.702;2023-02-19T04:55:37;95769.66;;;6.65;100.00
62103;BME280;48077;48.104;11.702;2023-02-19T04:58:01;95760.03;;;6.51;100.00
62103;BME280;48077;48.104;11.702;2023-02-19T05:00:24;95779.63;;;6.56;100.00
62103;BME280;48077;48.104;11.702;2023-02-19T05:02:48;95801.03;;;6.61;100.00
62103;BME280;48077;48.104;11.702;2023-02-19T05:05:11;95802.63;;;6.56;100.00
62103;BME280;48077;48.104;11.702;2023-02-19T05:07:34;95785.31;;;6.60;100.00
62103;BME280;48077;48.104;11.702;2023-02-19T05:09:58;95796.53;;;6.62;100.00
62103;BME280;48077;48.104;11.702;2023-02-19T05:12:24;95796.34;;;6.63;100.00
62103;BME280;48077;48.104;11.702;2023-02-19T05:14:47;95767.13;;;6.43;100.00
62103;BME280;48077;48.104;11.702;2023-02-19T05:17:11;95805.91;;;6.64;100.00
62103;BME280;48077;48.104;11.702;2023-02-19T05:19:34;95799.38;;;6.60;100.00
62103;BME280;48077;48.104;11.702;2023-02-19T05:21:58;95800.59;;;6.58;100.00
62103;BME280;48077;48.104;11.702;2023-02-19T05:24:21;95788.59;;;6.62;100.00
62103;BME280;48077;48.104;11.702;2023-02-19T05:26:46;95806.53;;;6.66;100.00
62103;BME280;48077;48.104;11.702;2023-02-19T05:29:10;95776.97;;;6.56;100.00
62103;BME280;48077;48.104;11.702;2023-02-19T05:31:34;95809.41;;;6.72;100.00
62103;BME280;48077;48.104;11.702;2023-02-19T05:33:57;95768.59;;;6.46;100.00
62103;BME280;48077;48.104;11.702;2023-02-19T05:36:21;95792.47;;;6.59;100.00
62103;BME280;48077;48.104;11.702;2023-02-19T05:38:45;95805.72;;;6.66;100.00
62103;BME280;48077;48.104;11.702;2023-02-19T05:41:21;95799.81;;;6.57;100.00
62103;BME280;48077;48.104;11.702;2023-02-19T05:43:46;95813.50;;;6.67;100.00
62103;BME280;48077;48.104;11.702;2023-02-19T05:46:12;95822.25;;;6.68;100.00
62103;BME280;48077;48.104;11.702;2023-02-19T05:48:36;95808.19;;;6.67;100.00
62103;BME280;48077;48.104;11.702;2023-02-19T05:51:03;95804.31;;;6.70;100.00
62103;BME280;48077;48.104;11.702;2023-02-19T05:53:26;95820.63;;;6.74;100.00
62103;BME280;48077;48.104;11.702;2023-02-19T05:55:50;95802.88;;;6.54;100.00
62103;BME280;48077;48.104;11.702;2023-02-19T05:58:13;95828.16;;;6.70;100.00
62103;BME280;48077;48.104;11.702;2023-02-19T06:00:36;95822.25;;;6.68;100.00
62103;BME280;48077;48.104;11.702;2023-02-19T06:03:00;95819.59;;;6.61;100.00
62103;BME280;48077;48.104;11.702;2023-02-19T06:05:24;95824.09;;;6.67;100.00
62103;BME280;48077;48.104;11.702;2023-02-19T06:07:47;95813.25;;;6.62;100.00
62103;BME280;48077;48.104;11.702;2023-02-19T06:10:12;95833.47;;;6.70;100.00
62103;BME280;48077;48.104;11.702;2023-02-19T06:12:36;95822.47;;;6.73;100.00
62103;BME280;48077;48.104;11.702;2023-02-19T06:15:00;95833.72;;;6.82;100.00
62103;BME280;48077;48.104;11.702;2023-02-19T06:17:23;95812.63;;;6.60;100.00
62103;BME280;48077;48.104;11.702;2023-02-19T06:19:46;95823.06;;;6.68;100.00
62103;BME280;48077;48.104;11.702;2023-02-19T06:22:10;95835.56;;;6.88;100.00
62103;BME280;48077;48.104;11.702;2023-02-19T06:24:33;95832.06;;;6.74;100.00
62103;BME280;48077;48.104;11.702;2023-02-19T06:26:58;95822.47;;;6.73;100.00
62103;BME280;48077;48.104;11.702;2023-02-19T06:29:21;95824.91;;;6.68;100.00
62103;BME280;48077;48.104;11.702;2023-02-19T06:31:44;95864.13;;;6.86;100.00
62103;BME280;48077;48.104;11.702;2023-02-19T06:34:08;95852.69;;;6.85;100.00
62103;BME280;48077;48.104;11.702;2023-02-19T06:36:31;95851.41;;;6.75;100.00
62103;BME280;48077;48.104;11.702;2023-02-19T06:38:58;95852.25;;;6.75;100.00
62103;BME280;48077;48.104;11.702;2023-02-19T06:41:22;95873.69;;;6.87;100.00
62103;BME280;48077;48.104;11.702;2023-02-19T06:43:45;95855.34;;;6.85;100.00
62103;BME280;48077;48.104;11.702;2023-02-19T06:46:10;95867.59;;;6.93;100.00
62103;BME280;48077;48.104;11.702;2023-02-19T06:48:34;95869.22;;;6.87;100.00
62103;BME280;48077;48.104;11.702;2023-02-19T06:50:58;95870.03;;;6.88;100.00
62103;BME280;48077;48.104;11.702;2023-02-19T06:53:22;95872.06;;;6.86;100.00
62103;BME280;48077;48.104;11.702;2023-02-19T06:55:58;95883.50;;;6.93;100.00
62103;BME280;48077;48.104;11.702;2023-02-19T06:58:22;95877.63;;;7.04;100.00
62103;BME280;48077;48.104;11.702;2023-02-19T07:00:46;95855.34;;;6.85;100.00
62103;BME280;48077;48.104;11.702;2023-02-19T07:03:09;95874.75;;;6.99;100.00
62103;BME280;48077;48.104;11.702;2023-02-19T07:05:32;95884.34;;;7.07;100.00
62103;BME280;48077;48.104;11.702;2023-02-19T07:07:56;95906.00;;;7.11;100.00
62103;BME280;48077;48.104;11.702;2023-02-19T07:10:19;95906.63;;;7.19;100.00
62103;BME280;48077;48.104;11.702;2023-02-19T07:12:43;95906.81;;;7.24;100.00
62103;BME280;48077;48.104;11.702;2023-02-19T07:15:06;95892.75;;;7.24;100.00
62103;BME280;48077;48.104;11.702;2023-02-19T07:17:30;95910.31;;;7.32;100.00
62103;BME280;48077;48.104;11.702;2023-02-19T07:19:53;95909.47;;;7.31;100.00
62103;BME280;48077;48.104;11.702;2023-02-19T07:22:17;95918.47;;;7.30;100.00
62103;BME280;48077;48.104;11.702;2023-02-19T07:24:40;95933.59;;;7.49;100.00
62103;BME280;48077;48.104;11.702;2023-02-19T07:27:03;95900.31;;;7.34;100.00
62103;BME280;48077;48.104;11.702;2023-02-19T07:29:27;95923.59;;;7.45;100.00
62103;BME280;48077;48.104;11.702;2023-02-19T07:31:50;95909.53;;;7.38;100.00
62103;BME280;48077;48.104;11.702;2023-02-19T07:34:13;95936.69;;;7.46;100.00
62103;BME280;48077;48.104;11.702;2023-02-19T07:36:37;95930.53;;;7.39;100.00
62103;BME280;48077;48.104;11.702;2023-02-19T07:39:00;95939.53;;;7.45;100.00
62103;BME280;48077;48.104;11.702;2023-02-19T07:41:24;95934.41;;;7.43;100.00
62103;BME280;48077;48.104;11.702;2023-02-19T07:43:48;95928.91;;;7.38;100.00
62103;BME280;48077;48.104;11.702;2023-02-19T07:46:12;95937.91;;;7.50;100.00
62103;BME280;48077;48.104;11.702;2023-02-19T07:48:37;95953.41;;;7.47;100.00
62103;BME280;48077;48.104;11.702;2023-02-19T07:51:02;95932.16;;;7.34;100.00
62103;BME280;48077;48.104;11.702;2023-02-19T07:53:26;95957.91;;;7.46;100.00
62103;BME280;48077;48.104;11.702;2023-02-19T07:55:50;95949.94;;;7.46;100.00
62103;BME280;48077;48.104;11.702;2023-02-19T07:58:14;95948.53;;;7.50;100.00
62103;BME280;48077;48.104;11.702;2023-02-19T08:00:37;95974.03;;;7.58;100.00
62103;BME280;48077;48.104;11.702;2023-02-19T08:03:01;95965.50;;;7.63;100.00
62103;BME280;48077;48.104;11.702;2023-02-19T08:05:30;95970.00;;;7.69;100.00
62103;BME280;48077;48.104;11.702;2023-02-19T08:07:56;95935.03;;;7.45;100.00
62103;BME280;48077;48.104;11.702;2023-02-19T08:10:19;95967.53;;;7.67;100.00
62103;BME280;48077;48.104;11.702;2023-02-19T08:13:02;95943.59;;;7.47;100.00
62103;BME280;48077;48.104;11.702;2023-02-19T08:18:26;95988.34;;;7.64;100.00
62103;BME280;48077;48.104;11.702;2023-02-19T08:20:49;95991.81;;;7.64;100.00
62103;BME280;48077;48.104;11.702;2023-02-19T08:23:13;95978.34;;;7.53;100.00
62103;BME280;48077;48.104;11.702;2023-02-19T08:25:37;95997.53;;;7.68;100.00
62103;BME280;48077;48.104;11.702;2023-02-19T08:28:03;95982.22;;;7.70;100.00
62103;BME280;48077;48.104;11.702;2023-02-19T08:30:28;96002.25;;;7.73;100.00
62103;BME280;48077;48.104;11.702;2023-02-19T08:32:52;95986.94;;;7.68;100.00
62103;BME280;48077;48.104;11.702;2023-02-19T08:35:16;95991.84;;;7.78;100.00
62103;BME280;48077;48.104;11.702;2023-02-19T08:37:39;95994.50;;;7.78;100.00
62103;BME280;48077;48.104;11.702;2023-02-19T08:40:03;95977.16;;;7.75;99.83
62103;BME280;48077;48.104;11.702;2023-02-19T08:42:32;95993.47;;;7.72;99.62
62103;BME280;48077;48.104;11.702;2023-02-19T08:44:55;96005.13;;;7.84;99.40
62103;BME280;48077;48.104;11.702;2023-02-19T08:47:19;96019.22;;;7.85;99.06
62103;BME280;48077;48.104;11.702;2023-02-19T08:49:42;96002.09;;;7.87;99.34
62103;BME280;48077;48.104;11.702;2023-02-19T08:52:05;95998.41;;;7.75;99.49
62103;BME280;48077;48.104;11.702;2023-02-19T08:54:29;96006.34;;;7.82;100.00
62103;BME280;48077;48.104;11.702;2023-02-19T08:56:55;96015.34;;;7.81;100.00
62103;BME280;48077;48.104;11.702;2023-02-19T08:59:18;96013.28;;;7.76;100.00
62103;BME280;48077;48.104;11.702;2023-02-19T09:01:42;95998.78;;;7.59;100.00
62103;BME280;48077;48.104;11.702;2023-02-19T09:04:08;96007.34;;;7.61;100.00
62103;BME280;48077;48.104;11.702;2023-02-19T09:06:33;96031.69;;;7.71;100.00
62103;BME280;48077;48.104;11.702;2023-02-19T09:08:57;96020.63;;;7.54;100.00
62103;BME280;48077;48.104;11.702;2023-02-19T09:11:20;96042.88;;;7.66;99.75
62103;BME280;48077;48.104;11.702;2023-02-19T09:13:43;96037.78;;;7.65;99.11
62103;BME280;48077;48.104;11.702;2023-02-19T09:16:11;96027.97;;;7.59;99.17
62103;BME280;48077;48.104;11.702;2023-02-19T09:18:37;96036.75;;;7.66;99.38
62103;BME280;48077;48.104;11.702;2023-02-19T09:21:02;96006.13;;;7.57;99.90
62103;BME280;48077;48.104;11.702;2023-02-19T09:23:26;96025.94;;;7.74;98.13
62103;BME280;48077;48.104;11.702;2023-02-19T09:25:56;96037.00;;;7.78;98.84
62103;BME280;48077;48.104;11.702;2023-02-19T09:28:21;96013.09;;;7.71;99.06
62103;BME280;48077;48.104;11.702;2023-02-19T09:30:45;96032.72;;;7.83;99.20
62103;BME280;48077;48.104;11.702;2023-02-19T09:33:08;96034.16;;;7.79;98.73
62103;BME280;48077;48.104;11.702;2023-02-19T09:35:31;96029.84;;;7.78;94.95
62103;BME280;48077;48.104;11.702;2023-02-19T09:37:58;96020.44;;;7.82;95.50
62103;BME280;48077;48.104;11.702;2023-02-19T09:40:21;96024.72;;;7.77;94.80
62103;BME280;48077;48.104;11.702;2023-02-19T09:42:48;96028.41;;;7.96;91.24
62103;BME280;48077;48.104;11.702;2023-02-19T09:45:18;96019.63;;;7.88;89.20
62103;BME280;48077;48.104;11.702;2023-02-19T09:47:43;96008.22;;;7.95;88.94
62103;BME280;48077;48.104;11.702;2023-02-19T09:50:11;96026.19;;;8.32;88.77
62103;BME280;48077;48.104;11.702;2023-02-19T09:52:39;96030.50;;;8.47;87.19
62103;BME280;48077;48.104;11.702;2023-02-19T09:55:32;96040.97;;;8.42;85.82
62103;BME280;48077;48.104;11.702;2023-02-19T09:57:58;96026.41;;;8.11;82.21
62103;BME280;48077;48.104;11.702;2023-02-19T10:00:25;96045.81;;;8.05;80.98
62103;BME280;48077;48.104;11.702;2023-02-19T10:02:57;95993.81;;;7.36;82.76
62103;BME280;48077;48.104;11.702;2023-02-19T10:05:25;96052.91;;;7.71;83.25
62103;BME280;48077;48.104;11.702;2023-02-19T10:07:51;96054.78;;;7.77;82.35
62103;BME280;48077;48.104;11.702;2023-02-19T10:12:44;96001.56;;;7.37;80.77
62103;BME280;48077;48.104;11.702;2023-02-19T10:15:24;96062.75;;;7.90;80.41
62103;BME280;48077;48.104;11.702;2023-02-19T10:17:51;96056.44;;;8.05;80.37
62103;BME280;48077;48.104;11.702;2023-02-19T10:20:17;96069.09;;;8.03;78.54
62103;BME280;48077;48.104;11.702;2023-02-19T10:22:41;96063.41;;;8.13;78.91
62103;BME280;48077;48.104;11.702;2023-02-19T10:25:05;96039.47;;;8.06;76.81
62103;BME280;48077;48.104;11.702;2023-02-19T10:27:32;96061.13;;;8.23;77.50
62103;BME280;48077;48.104;11.702;2023-02-19T10:29:56;96060.75;;;8.26;78.27
62103;BME280;48077;48.104;11.702;2023-02-19T10:32:25;96049.50;;;8.24;78.13
62103;BME280;48077;48.104;11.702;2023-02-19T10:35:08;96058.72;;;8.41;75.85
62103;BME280;48077;48.104;11.702;2023-02-19T10:37:32;96065.50;;;8.44;74.82
62103;BME280;48077;48.104;11.702;2023-02-19T10:39:55;96059.97;;;8.52;73.76
62103;BME280;48077;48.104;11.702;2023-02-19T10:42:22;96062.94;;;8.96;71.96
62103;BME280;48077;48.104;11.702;2023-02-19T10:44:55;96041.47;;;8.90;70.78
62103;BME280;48077;48.104;11.702;2023-02-19T10:47:25;96069.25;;;9.21;69.65
62103;BME280;48077;48.104;11.702;2023-02-19T10:49:50;96065.03;;;9.45;68.78
62103;BME280;48077;48.104;11.702;2023-02-19T10:52:26;96066.53;;;9.80;66.94
62103;BME280;48077;48.104;11.702;2023-02-19T10:54:54;96048.53;;;9.75;66.41
62103;BME280;48077;48.104;11.702;2023-02-19T10:59:53;96057.50;;;10.69;62.44
62103;BME280;48077;48.104;11.702;2023-02-19T11:02:18;96058.00;;;10.28;62.32
62103;BME280;48077;48.104;11.702;2023-02-19T11:05:02;96051.00;;;10.02;62.44
62103;BME280;48077;48.104;11.702;2023-02-19T11:07:26;96044.78;;;9.83;62.66
62103;BME280;48077;48.104;11.702;2023-02-19T11:09:53;96066.72;;;9.78;63.10
62103;BME280;48077;48.104;11.702;2023-02-19T11:12:31;96042.84;;;9.58;61.86
62103;BME280;48077;48.104;11.702;2023-02-19T11:14:56;96051.88;;;9.57;62.50
62103;BME280;48077;48.104;11.702;2023-02-19T11:17:26;96035.59;;;9.40;63.53
62103;BME280;48077;48.104;11.702;2023-02-19T11:19:53;96028.84;;;9.31;62.69
62103;BME280;48077;48.104;11.702;2023-02-19T11:22:18;96058.69;;;9.46;63.21
62103;BME280;48077;48.104;11.702;2023-02-19T11:24:49;96016.66;;;9.17;64.82
62103;BME280;48077;48.104;11.702;2023-02-19T11:27:20;96052.06;;;9.17;65.60
62103;BME280;48077;48.104;11.702;2023-02-19T11:29:44;96020.78;;;8.99;64.83
62103;BME280;48077;48.104;11.702;2023-02-19T11:32:28;96053.47;;;9.20;63.70
62103;BME280;48077;48.104;11.702;2023-02-19T11:35:18;96061.28;;;9.15;64.86
62103;BME280;48077;48.104;11.702;2023-02-19T11:37:58;96001.22;;;8.74;64.15
62103;BME280;48077;48.104;11.702;2023-02-19T11:41:09;96054.50;;;9.12;64.94
62103;BME280;48077;48.104;11.702;2023-02-19T11:44:04;95981.81;;;8.60;65.67
62103;BME280;48077;48.104;11.702;2023-02-19T11:47:04;96054.53;;;9.19;65.11
62103;BME280;48077;48.104;11.702;2023-02-19T11:55:08;96055.16;;;9.59;65.57
62103;BME280;48077;48.104;11.702;2023-02-19T11:57:47;96063.22;;;9.46;65.61
62103;BME280;48077;48.104;11.702;2023-02-19T12:00:25;96064.28;;;9.31;65.55
62103;BME280;48077;48.104;11.702;2023-02-19T12:08:57;96080.38;;;8.78;72.27
62103;BME280;48077;48.104;11.702;2023-02-19T12:11:38;96069.56;;;8.53;71.73
62103;BME280;48077;48.104;11.702;2023-02-19T12:28:04;96060.53;;;8.74;65.29
62103;BME280;48077;48.104;11.702;2023-02-19T12:33:44;96077.69;;;9.05;65.68
62103;BME280;48077;48.104;11.702;2023-02-19T12:39:22;96068.84;;;9.18;65.31
62103;BME280;48077;48.104;11.702;2023-02-19T12:44:37;96061.91;;;9.03;64.38
62103;BME280;48077;48.104;11.702;2023-02-19T12:47:03;96057.22;;;8.99;64.02
62103;BME280;48077;48.104;11.702;2023-02-19T12:49:36;96080.53;;;9.03;63.21
62103;BME280;48077;48.104;11.702;2023-02-19T12:52:17;96091.78;;;9.12;64.58
62103;BME280;48077;48.104;11.702;2023-02-19T12:54:47;96106.97;;;8.98;64.59
62103;BME280;48077;48.104;11.702;2023-02-19T12:57:22;96107.16;;;8.97;65.64
62103;BME280;48077;48.104;11.702;2023-02-19T13:00:08;96121.50;;;8.82;67.74
62103;BME280;48077;48.104;11.702;2023-02-19T13:02:52;96125.81;;;8.57;67.81
62103;BME280;48077;48.104;11.702;2023-02-19T13:05:45;96117.84;;;8.50;68.40
62103;BME280;48077;48.104;11.702;2023-02-19T13:08:18;96088.97;;;8.34;68.30
62103;BME280;48077;48.104;11.702;2023-02-19T13:11:09;96103.50;;;8.38;67.03
62103;BME280;48077;48.104;11.702;2023-02-19T13:13:46;96101.28;;;8.48;64.63
62103;BME280;48077;48.104;11.702;2023-02-19T13:16:14;96094.50;;;8.45;65.19
62103;BME280;48077;48.104;11.702;2023-02-19T13:21:04;96100.47;;;8.61;62.39
62103;BME280;48077;48.104;11.702;2023-02-19T13:23:36;96114.56;;;8.61;62.83
62103;BME280;48077;48.104;11.702;2023-02-19T13:26:44;96119.47;;;8.64;63.94
62103;BME280;48077;48.104;11.702;2023-02-19T13:34:55;96105.13;;;8.99;62.32
62103;BME280;48077;48.104;11.702;2023-02-19T13:37:22;96077.53;;;8.73;62.85
62103;BME280;48077;48.104;11.702;2023-02-19T13:39:48;96110.44;;;8.92;63.81
62103;BME280;48077;48.104;11.702;2023-02-19T13:44:47;96086.94;;;8.82;63.80
62103;BME280;48077;48.104;11.702;2023-02-19T13:50:23;96084.69;;;8.66;63.52
62103;BME280;48077;48.104;11.702;2023-02-19T13:52:47;96086.13;;;8.55;63.52
62103;BME280;48077;48.104;11.702;2023-02-19T14:00:54;96091.41;;;8.35;63.92
62103;BME280;48077;48.104;11.702;2023-02-19T14:03:28;96125.75;;;8.37;65.28
62103;BME280;48077;48.104;11.702;2023-02-19T14:06:03;96115.13;;;8.37;66.26
62103;BME280;48077;48.104;11.702;2023-02-19T14:11:08;96106.13;;;8.31;66.66
62103;BME280;48077;48.104;11.702;2023-02-19T14:16:30;96105.09;;;8.12;65.38
62103;BME280;48077;48.104;11.702;2023-02-19T14:18:54;96099.75;;;7.99;64.97
62103;BME280;48077;48.104;11.702;2023-02-19T14:21:23;96130.41;;;8.08;65.95
62103;BME280;48077;48.104;11.702;2023-02-19T14:23:54;96125.25;;;7.80;66.07
62103;BME280;48077;48.104;11.702;2023-02-19T14:26:18;96139.59;;;7.99;67.22
62103;BME280;48077;48.104;11.702;2023-02-19T14:28:44;96125.47;;;7.91;66.91
62103;BME280;48077;48.104;11.702;2023-02-19T14:33:36;96108.88;;;7.69;68.68